sensor_id;sensor_type;location;lat;lon;timestamp;P1;durP1;ratioP1;P2;durP2;ratioP2
9729;SDS011;4904;49.152;11.004;2023-06-10T00:01:37;6.78;;;4.57;;
9729;SDS011;4904;49.152;11.004;2023-06-10T00:04:04;4.90;;;4.50;;
9729;SDS011;4904;49.152;11.004;2023-06-10T00:06:31;6.07;;;4.40;;
9729;SDS011;4904;49.152;11.004;2023-06-10T00:09:00;5.47;;;4.90;;
9729;SDS011;4904;49.152;11.004;2023-06-10T00:11:31;6.15;;;5.55;;
9729;SDS011;4904;49.152;11.004;2023-06-10T00:13:58;6.03;;;5.50;;
9729;SDS011;4904;49.152;11.004;2023-06-10T00:16:26;8.10;;;4.53;;
9729;SDS011;4904;49.152;11.004;2023-06-10T00:18:53;4.88;;;4.47;;
9729;SDS011;4904;49.152;11.004;2023-06-10T00:21:25;5.20;;;4.70;;
9729;SDS011;4904;49.152;11.004;2023-06-10T00:23:52;6.60;;;5.30;;
9729;SDS011;4904;49.152;11.004;2023-06-10T00:26:20;5.60;;;5.13;;
9729;SDS011;4904;49.152;11.004;2023-06-10T00:28:49;6.78;;;5.35;;
9729;SDS011;4904;49.152;11.004;2023-06-10T00:31:17;5.53;;;4.80;;
9729;SDS011;4904;49.152;11.004;2023-06-10T00:33:44;6.18;;;5.13;;
9729;SDS011;4904;49.152;11.004;2023-06-10T00:36:11;5.63;;;5.10;;
9729;SDS011;4904;49.152;11.004;2023-06-10T00:38:38;5.57;;;5.07;;
9729;SDS011;4904;49.152;11.004;2023-06-10T00:41:06;9.13;;;5.20;;
9729;SDS011;4904;49.152;11.004;2023-06-10T00:43:33;5.60;;;5.15;;
9729;SDS011;4904;49.152;11.004;2023-06-10T00:46:01;6.05;;;4.57;;
9729;SDS011;4904;49.152;11.004;2023-06-10T00:48:28;5.55;;;5.03;;
9729;SDS011;4904;49.152;11.004;2023-06-10T00:50:56;4.93;;;4.53;;
9729;SDS011;4904;49.152;11.004;2023-06-10T00:53:24;5.07;;;4.65;;
9729;SDS011;4904;49.152;11.004;2023-06-10T00:55:51;5.68;;;5.13;;
9729;SDS011;4904;49.152;11.004;2023-06-10T00:58:19;6.88;;;4.93;;
9729;SDS011;4904;49.152;11.004;2023-06-10T01:00:46;5.93;;;5.30;;
9729;SDS011;4904;49.152;11.004;2023-06-10T01:03:14;5.72;;;5.20;;
9729;SDS011;4904;49.152;11.004;2023-06-10T01:05:42;6.20;;;4.82;;
9729;SDS011;4904;49.152;11.004;2023-06-10T01:08:13;6.40;;;5.63;;
9729;SDS011;4904;49.152;11.004;2023-06-10T01:10:47;7.03;;;5.20;;
9729;SDS011;4904;49.152;11.004;2023-06-10T01:13:17;5.80;;;5.20;;
9729;SDS011;4904;49.152;11.004;2023-06-10T01:15:49;7.35;;;5.47;;
9729;SDS011;4904;49.152;11.004;2023-06-10T01:18:21;6.55;;;5.47;;
9729;SDS011;4904;49.152;11.004;2023-06-10T01:20:49;6.80;;;5.95;;
9729;SDS011;4904;49.152;11.004;2023-06-10T01:23:18;6.70;;;6.10;;
9729;SDS011;4904;49.152;11.004;2023-06-10T01:25:46;6.40;;;5.65;;
9729;SDS011;4904;49.152;11.004;2023-06-10T01:28:21;7.43;;;5.38;;
9729;SDS011;4904;49.152;11.004;2023-06-10T01:30:55;8.02;;;5.55;;
9729;SDS011;4904;49.152;11.004;2023-06-10T01:33:31;6.35;;;5.70;;
9729;SDS011;4904;49.152;11.004;2023-06-10T01:36:01;6.15;;;5.55;;
9729;SDS011;4904;49.152;11.004;2023-06-10T01:38:32;6.60;;;5.95;;
9729;SDS011;4904;49.152;11.004;2023-06-10T01:41:05;7.35;;;5.95;;
9729;SDS011;4904;49.152;11.004;2023-06-10T01:43:33;8.45;;;6.28;;
9729;SDS011;4904;49.152;11.004;2023-06-10T01:46:01;7.07;;;5.85;;
9729;SDS011;4904;49.152;11.004;2023-06-10T01:48:28;6.65;;;6.05;;
9729;SDS011;4904;49.152;11.004;2023-06-10T01:50:55;6.45;;;5.85;;
9729;SDS011;4904;49.152;11.004;2023-06-10T01:53:22;6.65;;;5.45;;
9729;SDS011;4904;49.152;11.004;2023-06-10T01:55:51;6.35;;;5.75;;
9729;SDS011;4904;49.152;11.004;2023-06-10T01:58:18;5.88;;;5.38;;
9729;SDS011;4904;49.152;11.004;2023-06-10T02:00:45;7.38;;;5.90;;
9729;SDS011;4904;49.152;11.004;2023-06-10T02:03:12;6.20;;;5.57;;
9729;SDS011;4904;49.152;11.004;2023-06-10T02:05:39;6.40;;;5.75;;
9729;SDS011;4904;49.152;11.004;2023-06-10T02:08:06;6.28;;;5.65;;
9729;SDS011;4904;49.152;11.004;2023-06-10T02:10:33;6.07;;;5.47;;
9729;SDS011;4904;49.152;11.004;2023-06-10T02:13:02;8.82;;;5.32;;
9729;SDS011;4904;49.152;11.004;2023-06-10T02:15:29;7.88;;;5.53;;
9729;SDS011;4904;49.152;11.004;2023-06-10T02:17:56;6.65;;;5.18;;
9729;SDS011;4904;49.152;11.004;2023-06-10T02:20:23;5.90;;;5.25;;
9729;SDS011;4904;49.152;11.004;2023-06-10T02:22:50;6.40;;;5.80;;
9729;SDS011;4904;49.152;11.004;2023-06-10T02:25:17;6.35;;;5.70;;
9729;SDS011;4904;49.152;11.004;2023-06-10T02:27:45;8.27;;;6.25;;
9729;SDS011;4904;49.152;11.004;2023-06-10T02:30:13;7.00;;;5.60;;
9729;SDS011;4904;49.152;11.004;2023-06-10T02:32:41;5.22;;;4.82;;
9729;SDS011;4904;49.152;11.004;2023-06-10T02:35:12;5.07;;;4.65;;
9729;SDS011;4904;49.152;11.004;2023-06-10T02:37:39;6.25;;;4.68;;
9729;SDS011;4904;49.152;11.004;2023-06-10T02:40:08;9.88;;;5.22;;
9729;SDS011;4904;49.152;11.004;2023-06-10T02:42:36;7.45;;;6.20;;
9729;SDS011;4904;49.152;11.004;2023-06-10T02:45:03;7.40;;;6.68;;
9729;SDS011;4904;49.152;11.004;2023-06-10T02:47:32;7.15;;;6.45;;
9729;SDS011;4904;49.152;11.004;2023-06-10T02:49:59;7.05;;;6.45;;
9729;SDS011;4904;49.152;11.004;2023-06-10T02:52:26;7.30;;;6.38;;
9729;SDS011;4904;49.152;11.004;2023-06-10T02:54:54;7.15;;;5.68;;
9729;SDS011;4904;49.152;11.004;2023-06-10T02:57:21;9.55;;;5.93;;
9729;SDS011;4904;49.152;11.004;2023-06-10T02:59:48;9.38;;;5.85;;
9729;SDS011;4904;49.152;11.004;2023-06-10T03:02:16;8.52;;;6.20;;
9729;SDS011;4904;49.152;11.004;2023-06-10T03:04:44;6.63;;;6.00;;
9729;SDS011;4904;49.152;11.004;2023-06-10T03:07:12;7.10;;;5.85;;
9729;SDS011;4904;49.152;11.004;2023-06-10T03:09:39;6.30;;;5.68;;
9729;SDS011;4904;49.152;11.004;2023-06-10T03:12:07;7.72;;;5.57;;
9729;SDS011;4904;49.152;11.004;2023-06-10T03:14:35;7.32;;;6.18;;
9729;SDS011;4904;49.152;11.004;2023-06-10T03:17:04;8.20;;;6.07;;
9729;SDS011;4904;49.152;11.004;2023-06-10T03:19:31;6.65;;;5.95;;
9729;SDS011;4904;49.152;11.004;2023-06-10T03:22:09;6.03;;;5.38;;
9729;SDS011;4904;49.152;11.004;2023-06-10T03:24:37;6.13;;;5.53;;
9729;SDS011;4904;49.152;11.004;2023-06-10T03:27:06;6.55;;;5.57;;
9729;SDS011;4904;49.152;11.004;2023-06-10T03:29:33;10.32;;;5.55;;
9729;SDS011;4904;49.152;11.004;2023-06-10T03:32:00;7.05;;;5.65;;
9729;SDS011;4904;49.152;11.004;2023-06-10T03:34:27;5.90;;;5.40;;
9729;SDS011;4904;49.152;11.004;2023-06-10T03:36:55;7.45;;;6.03;;
9729;SDS011;4904;49.152;11.004;2023-06-10T03:39:25;6.50;;;5.90;;
9729;SDS011;4904;49.152;11.004;2023-06-10T03:41:54;6.68;;;6.10;;
9729;SDS011;4904;49.152;11.004;2023-06-10T03:44:21;8.32;;;5.85;;
9729;SDS011;4904;49.152;11.004;2023-06-10T03:46:47;6.45;;;5.75;;
9729;SDS011;4904;49.152;11.004;2023-06-10T03:49:15;5.95;;;5.45;;
9729;SDS011;4904;49.152;11.004;2023-06-10T03:51:42;6.25;;;5.75;;
9729;SDS011;4904;49.152;11.004;2023-06-10T03:54:10;8.27;;;5.75;;
9729;SDS011;4904;49.152;11.004;2023-06-10T03:56:38;6.50;;;5.90;;
9729;SDS011;4904;49.152;11.004;2023-06-10T03:59:05;6.25;;;5.75;;
9729;SDS011;4904;49.152;11.004;2023-06-10T04:01:32;6.63;;;5.78;;
9729;SDS011;4904;49.152;11.004;2023-06-10T04:04:00;6.20;;;5.68;;
9729;SDS011;4904;49.152;11.004;2023-06-10T04:06:27;8.18;;;6.15;;
9729;SDS011;4904;49.152;11.004;2023-06-10T04:08:54;7.85;;;6.63;;
9729;SDS011;4904;49.152;11.004;2023-06-10T04:11:23;6.82;;;6.22;;
9729;SDS011;4904;49.152;11.004;2023-06-10T04:13:54;7.55;;;6.25;;
9729;SDS011;4904;49.152;11.004;2023-06-10T04:16:21;7.05;;;6.38;;
9729;SDS011;4904;49.152;11.004;2023-06-10T04:18:49;6.97;;;6.32;;
9729;SDS011;4904;49.152;11.004;2023-06-10T04:21:17;6.85;;;6.25;;
9729;SDS011;4904;49.152;11.004;2023-06-10T04:23:44;7.32;;;6.70;;
9729;SDS011;4904;49.152;11.004;2023-06-10T04:26:11;7.35;;;6.65;;
9729;SDS011;4904;49.152;11.004;2023-06-10T04:28:38;8.63;;;6.60;;
9729;SDS011;4904;49.152;11.004;2023-06-10T04:31:07;7.15;;;6.45;;
9729;SDS011;4904;49.152;11.004;2023-06-10T04:33:35;8.00;;;6.65;;
9729;SDS011;4904;49.152;11.004;2023-06-10T04:36:02;6.95;;;6.35;;
9729;SDS011;4904;49.152;11.004;2023-06-10T04:38:30;7.18;;;6.57;;
9729;SDS011;4904;49.152;11.004;2023-06-10T04:40:57;8.60;;;7.45;;
9729;SDS011;4904;49.152;11.004;2023-06-10T04:43:26;7.18;;;6.47;;
9729;SDS011;4904;49.152;11.004;2023-06-10T04:45:54;7.80;;;7.20;;
9729;SDS011;4904;49.152;11.004;2023-06-10T04:48:24;8.95;;;7.53;;
9729;SDS011;4904;49.152;11.004;2023-06-10T04:50:51;7.85;;;7.13;;
9729;SDS011;4904;49.152;11.004;2023-06-10T04:53:19;8.20;;;7.50;;
9729;SDS011;4904;49.152;11.004;2023-06-10T04:55:45;8.02;;;7.03;;
9729;SDS011;4904;49.152;11.004;2023-06-10T04:58:13;8.38;;;7.57;;
9729;SDS011;4904;49.152;11.004;2023-06-10T05:00:40;7.88;;;7.18;;
9729;SDS011;4904;49.152;11.004;2023-06-10T05:03:08;9.35;;;7.93;;
9729;SDS011;4904;49.152;11.004;2023-06-10T05:05:37;8.43;;;7.72;;
9729;SDS011;4904;49.152;11.004;2023-06-10T05:08:05;9.35;;;8.27;;
9729;SDS011;4904;49.152;11.004;2023-06-10T05:10:33;8.02;;;7.20;;
9729;SDS011;4904;49.152;11.004;2023-06-10T05:13:01;8.77;;;7.97;;
9729;SDS011;4904;49.152;11.004;2023-06-10T05:15:28;8.07;;;7.38;;
9729;SDS011;4904;49.152;11.004;2023-06-10T05:17:56;8.55;;;7.65;;
9729;SDS011;4904;49.152;11.004;2023-06-10T05:20:27;8.57;;;7.28;;
9729;SDS011;4904;49.152;11.004;2023-06-10T05:22:56;7.95;;;7.25;;
9729;SDS011;4904;49.152;11.004;2023-06-10T05:25:23;8.95;;;8.15;;
9729;SDS011;4904;49.152;11.004;2023-06-10T05:27:51;9.27;;;8.48;;
9729;SDS011;4904;49.152;11.004;2023-06-10T05:30:18;9.15;;;8.25;;
9729;SDS011;4904;49.152;11.004;2023-06-10T05:32:46;8.43;;;7.63;;
9729;SDS011;4904;49.152;11.004;2023-06-10T05:35:14;9.02;;;8.18;;
9729;SDS011;4904;49.152;11.004;2023-06-10T05:37:41;8.85;;;8.05;;
9729;SDS011;4904;49.152;11.004;2023-06-10T05:40:10;9.20;;;8.38;;
9729;SDS011;4904;49.152;11.004;2023-06-10T05:42:38;9.32;;;8.43;;
9729;SDS011;4904;49.152;11.004;2023-06-10T05:45:05;10.00;;;8.73;;
9729;SDS011;4904;49.152;11.004;2023-06-10T05:47:33;8.90;;;8.18;;
9729;SDS011;4904;49.152;11.004;2023-06-10T05:50:01;9.45;;;8.50;;
9729;SDS011;4904;49.152;11.004;2023-06-10T05:52:32;8.68;;;7.97;;
9729;SDS011;4904;49.152;11.004;2023-06-10T05:54:59;9.13;;;8.38;;
9729;SDS011;4904;49.152;11.004;2023-06-10T05:57:27;8.75;;;8.02;;
9729;SDS011;4904;49.152;11.004;2023-06-10T05:59:54;8.98;;;8.25;;
9729;SDS011;4904;49.152;11.004;2023-06-10T06:02:21;8.93;;;8.00;;
9729;SDS011;4904;49.152;11.004;2023-06-10T06:04:48;9.25;;;8.45;;
9729;SDS011;4904;49.152;11.004;2023-06-10T06:07:15;8.48;;;7.72;;
9729;SDS011;4904;49.152;11.004;2023-06-10T06:09:45;8.68;;;7.88;;
9729;SDS011;4904;49.152;11.004;2023-06-10T06:12:12;8.95;;;8.15;;
9729;SDS011;4904;49.152;11.004;2023-06-10T06:14:41;9.13;;;8.18;;
9729;SDS011;4904;49.152;11.004;2023-06-10T06:17:10;9.45;;;8.13;;
9729;SDS011;4904;49.152;11.004;2023-06-10T06:19:37;8.80;;;8.10;;
9729;SDS011;4904;49.152;11.004;2023-06-10T06:22:04;8.90;;;8.00;;
9729;SDS011;4904;49.152;11.004;2023-06-10T06:24:31;8.50;;;7.80;;
9729;SDS011;4904;49.152;11.004;2023-06-10T06:26:58;8.50;;;7.80;;
9729;SDS011;4904;49.152;11.004;2023-06-10T06:29:25;8.65;;;7.85;;
9729;SDS011;4904;49.152;11.004;2023-06-10T06:31:56;9.23;;;8.43;;
9729;SDS011;4904;49.152;11.004;2023-06-10T06:34:23;8.30;;;7.55;;
9729;SDS011;4904;49.152;11.004;2023-06-10T06:36:50;8.20;;;7.43;;
9729;SDS011;4904;49.152;11.004;2023-06-10T06:39:17;8.38;;;7.68;;
9729;SDS011;4904;49.152;11.004;2023-06-10T06:41:44;7.78;;;7.18;;
9729;SDS011;4904;49.152;11.004;2023-06-10T06:44:10;8.88;;;8.18;;
9729;SDS011;4904;49.152;11.004;2023-06-10T06:46:37;9.13;;;8.13;;
9729;SDS011;4904;49.152;11.004;2023-06-10T06:49:08;7.90;;;7.25;;
9729;SDS011;4904;49.152;11.004;2023-06-10T06:51:36;8.65;;;7.95;;
9729;SDS011;4904;49.152;11.004;2023-06-10T06:54:03;7.60;;;6.90;;
9729;SDS011;4904;49.152;11.004;2023-06-10T06:56:30;8.15;;;7.35;;
9729;SDS011;4904;49.152;11.004;2023-06-10T06:58:58;7.63;;;6.97;;
9729;SDS011;4904;49.152;11.004;2023-06-10T07:01:25;7.47;;;6.88;;
9729;SDS011;4904;49.152;11.004;2023-06-10T07:03:53;7.88;;;7.28;;
9729;SDS011;4904;49.152;11.004;2023-06-10T07:06:22;7.40;;;6.78;;
9729;SDS011;4904;49.152;11.004;2023-06-10T07:08:50;7.25;;;6.65;;
9729;SDS011;4904;49.152;11.004;2023-06-10T07:11:17;7.40;;;6.80;;
9729;SDS011;4904;49.152;11.004;2023-06-10T07:13:44;7.47;;;6.78;;
9729;SDS011;4904;49.152;11.004;2023-06-10T07:16:11;7.15;;;6.55;;
9729;SDS011;4904;49.152;11.004;2023-06-10T07:18:38;7.10;;;6.55;;
9729;SDS011;4904;49.152;11.004;2023-06-10T07:21:05;7.05;;;6.45;;
9729;SDS011;4904;49.152;11.004;2023-06-10T07:23:33;7.03;;;6.20;;
9729;SDS011;4904;49.152;11.004;2023-06-10T07:26:00;7.00;;;6.38;;
9729;SDS011;4904;49.152;11.004;2023-06-10T07:28:26;7.07;;;6.40;;
9729;SDS011;4904;49.152;11.004;2023-06-10T07:30:53;7.45;;;6.75;;
9729;SDS011;4904;49.152;11.004;2023-06-10T07:33:20;6.32;;;5.82;;
9729;SDS011;4904;49.152;11.004;2023-06-10T07:35:48;6.32;;;5.72;;
9729;SDS011;4904;49.152;11.004;2023-06-10T07:38:15;6.75;;;6.15;;
9729;SDS011;4904;49.152;11.004;2023-06-10T07:40:44;6.82;;;6.32;;
9729;SDS011;4904;49.152;11.004;2023-06-10T07:43:12;6.82;;;6.30;;
9729;SDS011;4904;49.152;11.004;2023-06-10T07:45:39;6.57;;;6.07;;
9729;SDS011;4904;49.152;11.004;2023-06-10T07:48:06;7.10;;;6.60;;
9729;SDS011;4904;49.152;11.004;2023-06-10T07:50:33;6.85;;;6.25;;
9729;SDS011;4904;49.152;11.004;2023-06-10T07:53:00;6.38;;;5.88;;
9729;SDS011;4904;49.152;11.004;2023-06-10T07:55:28;6.57;;;6.05;;
9729;SDS011;4904;49.152;11.004;2023-06-10T07:57:56;6.90;;;6.20;;
9729;SDS011;4904;49.152;11.004;2023-06-10T08:00:23;6.00;;;5.55;;
9729;SDS011;4904;49.152;11.004;2023-06-10T08:02:52;7.00;;;6.40;;
9729;SDS011;4904;49.152;11.004;2023-06-10T08:05:19;6.40;;;5.80;;
9729;SDS011;4904;49.152;11.004;2023-06-10T08:07:46;6.32;;;5.78;;
9729;SDS011;4904;49.152;11.004;2023-06-10T08:10:13;6.75;;;5.20;;
9729;SDS011;4904;49.152;11.004;2023-06-10T08:12:40;7.13;;;5.72;;
9729;SDS011;4904;49.152;11.004;2023-06-10T08:15:09;6.22;;;5.72;;
9729;SDS011;4904;49.152;11.004;2023-06-10T08:17:38;5.80;;;5.38;;
9729;SDS011;4904;49.152;11.004;2023-06-10T08:20:05;7.20;;;5.95;;
9729;SDS011;4904;49.152;11.004;2023-06-10T08:22:33;6.72;;;6.10;;
9729;SDS011;4904;49.152;11.004;2023-06-10T08:25:01;6.25;;;5.75;;
9729;SDS011;4904;49.152;11.004;2023-06-10T08:27:28;6.25;;;5.80;;
9729;SDS011;4904;49.152;11.004;2023-06-10T08:29:55;7.43;;;6.40;;
9729;SDS011;4904;49.152;11.004;2023-06-10T08:32:26;6.25;;;5.75;;
9729;SDS011;4904;49.152;11.004;2023-06-10T08:34:53;6.82;;;6.32;;
9729;SDS011;4904;49.152;11.004;2023-06-10T08:37:20;6.35;;;5.82;;
9729;SDS011;4904;49.152;11.004;2023-06-10T08:39:47;6.40;;;5.85;;
9729;SDS011;4904;49.152;11.004;2023-06-10T08:42:16;7.47;;;6.88;;
9729;SDS011;4904;49.152;11.004;2023-06-10T08:44:50;6.47;;;5.97;;
9729;SDS011;4904;49.152;11.004;2023-06-10T08:47:22;7.13;;;6.63;;
9729;SDS011;4904;49.152;11.004;2023-06-10T08:49:52;6.68;;;6.07;;
9729;SDS011;4904;49.152;11.004;2023-06-10T08:52:21;6.70;;;6.10;;
9729;SDS011;4904;49.152;11.004;2023-06-10T08:54:52;6.82;;;6.32;;
9729;SDS011;4904;49.152;11.004;2023-06-10T08:57:23;7.53;;;6.82;;
9729;SDS011;4904;49.152;11.004;2023-06-10T08:59:50;6.38;;;5.88;;
9729;SDS011;4904;49.152;11.004;2023-06-10T09:02:20;5.90;;;5.40;;
9729;SDS011;4904;49.152;11.004;2023-06-10T09:04:47;6.65;;;6.15;;
9729;SDS011;4904;49.152;11.004;2023-06-10T09:07:17;6.25;;;5.75;;
9729;SDS011;4904;49.152;11.004;2023-06-10T09:09:45;8.40;;;6.28;;
9729;SDS011;4904;49.152;11.004;2023-06-10T09:12:13;6.13;;;5.45;;
9729;SDS011;4904;49.152;11.004;2023-06-10T09:14:40;4.50;;;3.60;;
9729;SDS011;4904;49.152;11.004;2023-06-10T09:17:08;4.22;;;3.40;;
9729;SDS011;4904;49.152;11.004;2023-06-10T09:19:35;5.45;;;3.63;;
9729;SDS011;4904;49.152;11.004;2023-06-10T09:22:05;4.18;;;3.53;;
9729;SDS011;4904;49.152;11.004;2023-06-10T09:24:33;4.30;;;3.78;;
9729;SDS011;4904;49.152;11.004;2023-06-10T09:27:02;4.03;;;3.72;;
9729;SDS011;4904;49.152;11.004;2023-06-10T09:29:30;4.00;;;3.70;;
9729;SDS011;4904;49.152;11.004;2023-06-10T09:31:57;3.80;;;3.50;;
9729;SDS011;4904;49.152;11.004;2023-06-10T09:34:26;4.05;;;3.72;;
9729;SDS011;4904;49.152;11.004;2023-06-10T09:36:54;4.07;;;3.78;;
9729;SDS011;4904;49.152;11.004;2023-06-10T09:39:21;3.42;;;3.13;;
9729;SDS011;4904;49.152;11.004;2023-06-10T09:41:51;4.07;;;3.78;;
9729;SDS011;4904;49.152;11.004;2023-06-10T09:44:19;4.32;;;3.92;;
9729;SDS011;4904;49.152;11.004;2023-06-10T09:46:49;4.28;;;3.92;;
9729;SDS011;4904;49.152;11.004;2023-06-10T09:49:16;4.55;;;4.15;;
9729;SDS011;4904;49.152;11.004;2023-06-10T09:51:50;4.60;;;4.20;;
9729;SDS011;4904;49.152;11.004;2023-06-10T09:54:18;4.38;;;3.97;;
9729;SDS011;4904;49.152;11.004;2023-06-10T09:56:46;4.40;;;4.10;;
9729;SDS011;4904;49.152;11.004;2023-06-10T09:59:15;4.40;;;4.00;;
9729;SDS011;4904;49.152;11.004;2023-06-10T10:01:42;4.20;;;3.90;;
9729;SDS011;4904;49.152;11.004;2023-06-10T10:04:09;4.07;;;3.78;;
9729;SDS011;4904;49.152;11.004;2023-06-10T10:06:36;4.18;;;3.88;;
9729;SDS011;4904;49.152;11.004;2023-06-10T10:09:04;5.32;;;3.92;;
9729;SDS011;4904;49.152;11.004;2023-06-10T10:11:32;3.90;;;3.60;;
9729;SDS011;4904;49.152;11.004;2023-06-10T10:14:01;4.65;;;3.72;;
9729;SDS011;4904;49.152;11.004;2023-06-10T10:16:35;4.75;;;4.15;;
9729;SDS011;4904;49.152;11.004;2023-06-10T10:19:07;4.18;;;3.88;;
9729;SDS011;4904;49.152;11.004;2023-06-10T10:21:38;4.32;;;3.88;;
9729;SDS011;4904;49.152;11.004;2023-06-10T10:24:09;4.57;;;4.18;;
9729;SDS011;4904;49.152;11.004;2023-06-10T10:26:42;4.35;;;4.05;;
9729;SDS011;4904;49.152;11.004;2023-06-10T10:29:10;5.55;;;3.97;;
9729;SDS011;4904;49.152;11.004;2023-06-10T10:31:51;4.47;;;4.07;;
9729;SDS011;4904;49.152;11.004;2023-06-10T10:34:19;4.45;;;4.07;;
9729;SDS011;4904;49.152;11.004;2023-06-10T10:36:50;4.55;;;4.25;;
9729;SDS011;4904;49.152;11.004;2023-06-10T10:39:18;4.45;;;4.15;;
9729;SDS011;4904;49.152;11.004;2023-06-10T10:41:45;4.90;;;4.40;;
9729;SDS011;4904;49.152;11.004;2023-06-10T10:44:14;5.68;;;4.75;;
9729;SDS011;4904;49.152;11.004;2023-06-10T10:46:42;5.28;;;4.88;;
9729;SDS011;4904;49.152;11.004;2023-06-10T10:49:13;4.90;;;4.50;;
9729;SDS011;4904;49.152;11.004;2023-06-10T10:51:53;4.80;;;4.40;;
9729;SDS011;4904;49.152;11.004;2023-06-10T10:54:27;4.47;;;4.18;;
9729;SDS011;4904;49.152;11.004;2023-06-10T10:57:15;5.40;;;4.90;;
9729;SDS011;4904;49.152;11.004;2023-06-10T10:59:44;5.38;;;4.88;;
9729;SDS011;4904;49.152;11.004;2023-06-10T11:02:15;4.90;;;4.50;;
9729;SDS011;4904;49.152;11.004;2023-06-10T11:04:46;5.05;;;4.60;;
9729;SDS011;4904;49.152;11.004;2023-06-10T11:07:13;4.93;;;4.53;;
9729;SDS011;4904;49.152;11.004;2023-06-10T11:12:24;5.07;;;4.68;;
9729;SDS011;4904;49.152;11.004;2023-06-10T11:14:53;5.35;;;4.85;;
9729;SDS011;4904;49.152;11.004;2023-06-10T11:17:21;4.80;;;4.50;;
9729;SDS011;4904;49.152;11.004;2023-06-10T11:19:50;4.90;;;4.50;;
9729;SDS011;4904;49.152;11.004;2023-06-10T11:22:16;5.40;;;4.90;;
9729;SDS011;4904;49.152;11.004;2023-06-10T11:24:47;4.97;;;4.57;;
9729;SDS011;4904;49.152;11.004;2023-06-10T11:27:15;5.28;;;4.88;;
9729;SDS011;4904;49.152;11.004;2023-06-10T11:29:56;4.93;;;4.53;;
9729;SDS011;4904;49.152;11.004;2023-06-10T11:32:38;6.35;;;4.65;;
9729;SDS011;4904;49.152;11.004;2023-06-10T11:35:07;5.30;;;4.90;;
9729;SDS011;4904;49.152;11.004;2023-06-10T11:37:34;5.15;;;4.75;;
9729;SDS011;4904;49.152;11.004;2023-06-10T11:40:02;5.30;;;4.85;;
9729;SDS011;4904;49.152;11.004;2023-06-10T11:42:30;4.90;;;4.55;;
9729;SDS011;4904;49.152;11.004;2023-06-10T11:44:58;4.90;;;4.50;;
9729;SDS011;4904;49.152;11.004;2023-06-10T11:47:27;4.72;;;4.43;;
9729;SDS011;4904;49.152;11.004;2023-06-10T11:49:57;4.22;;;3.90;;
9729;SDS011;4904;49.152;11.004;2023-06-10T11:52:27;4.50;;;4.20;;
9729;SDS011;4904;49.152;11.004;2023-06-10T11:54:56;4.25;;;3.95;;
9729;SDS011;4904;49.152;11.004;2023-06-10T11:57:23;3.70;;;3.50;;
9729;SDS011;4904;49.152;11.004;2023-06-10T11:59:50;4.25;;;3.95;;
9729;SDS011;4904;49.152;11.004;2023-06-10T12:02:17;4.85;;;3.80;;
9729;SDS011;4904;49.152;11.004;2023-06-10T12:04:47;4.25;;;3.95;;
9729;SDS011;4904;49.152;11.004;2023-06-10T12:07:17;4.28;;;3.90;;
9729;SDS011;4904;49.152;11.004;2023-06-10T12:09:52;4.40;;;4.00;;
9729;SDS011;4904;49.152;11.004;2023-06-10T12:12:26;4.40;;;4.00;;
9729;SDS011;4904;49.152;11.004;2023-06-10T12:14:53;4.53;;;4.22;;
9729;SDS011;4904;49.152;11.004;2023-06-10T12:17:22;4.35;;;4.05;;
9729;SDS011;4904;49.152;11.004;2023-06-10T12:19:50;4.88;;;4.50;;
9729;SDS011;4904;49.152;11.004;2023-06-10T12:22:17;4.85;;;4.32;;
9729;SDS011;4904;49.152;11.004;2023-06-10T12:24:45;5.57;;;4.22;;
9729;SDS011;4904;49.152;11.004;2023-06-10T12:27:24;4.88;;;4.47;;
9729;SDS011;4904;49.152;11.004;2023-06-10T12:29:53;4.68;;;4.38;;
9729;SDS011;4904;49.152;11.004;2023-06-10T12:32:20;4.97;;;4.57;;
9729;SDS011;4904;49.152;11.004;2023-06-10T12:35:01;4.35;;;4.00;;
9729;SDS011;4904;49.152;11.004;2023-06-10T12:37:30;5.00;;;4.50;;
9729;SDS011;4904;49.152;11.004;2023-06-10T12:40:00;4.85;;;4.55;;
9729;SDS011;4904;49.152;11.004;2023-06-10T12:42:27;4.18;;;3.88;;
9729;SDS011;4904;49.152;11.004;2023-06-10T12:44:56;4.63;;;4.32;;
9729;SDS011;4904;49.152;11.004;2023-06-10T12:47:29;4.50;;;4.20;;
9729;SDS011;4904;49.152;11.004;2023-06-10T12:49:58;4.65;;;4.35;;
9729;SDS011;4904;49.152;11.004;2023-06-10T12:52:25;4.40;;;4.00;;
9729;SDS011;4904;49.152;11.004;2023-06-10T12:54:52;4.47;;;4.07;;
9729;SDS011;4904;49.152;11.004;2023-06-10T12:57:21;4.20;;;3.88;;
9729;SDS011;4904;49.152;11.004;2023-06-10T12:59:48;4.60;;;4.20;;
9729;SDS011;4904;49.152;11.004;2023-06-10T13:02:17;4.63;;;4.18;;
9729;SDS011;4904;49.152;11.004;2023-06-10T13:04:45;4.40;;;4.00;;
9729;SDS011;4904;49.152;11.004;2023-06-10T13:07:12;4.28;;;3.95;;
9729;SDS011;4904;49.152;11.004;2023-06-10T13:09:39;4.47;;;4.07;;
9729;SDS011;4904;49.152;11.004;2023-06-10T13:12:07;4.40;;;4.10;;
9729;SDS011;4904;49.152;11.004;2023-06-10T13:14:36;5.03;;;3.80;;
9729;SDS011;4904;49.152;11.004;2023-06-10T13:17:04;4.50;;;4.20;;
9729;SDS011;4904;49.152;11.004;2023-06-10T13:19:32;4.50;;;4.13;;
9729;SDS011;4904;49.152;11.004;2023-06-10T13:21:59;4.60;;;4.10;;
9729;SDS011;4904;49.152;11.004;2023-06-10T13:24:26;4.47;;;4.18;;
9729;SDS011;4904;49.152;11.004;2023-06-10T13:26:53;4.55;;;4.25;;
9729;SDS011;4904;49.152;11.004;2023-06-10T13:29:21;5.53;;;3.85;;
9729;SDS011;4904;49.152;11.004;2023-06-10T13:31:52;4.45;;;4.15;;
9729;SDS011;4904;49.152;11.004;2023-06-10T13:34:19;4.22;;;3.92;;
9729;SDS011;4904;49.152;11.004;2023-06-10T13:36:46;4.40;;;4.10;;
9729;SDS011;4904;49.152;11.004;2023-06-10T13:39:13;4.40;;;4.10;;
9729;SDS011;4904;49.152;11.004;2023-06-10T13:41:40;4.78;;;4.47;;
9729;SDS011;4904;49.152;11.004;2023-06-10T13:44:08;4.13;;;3.83;;
9729;SDS011;4904;49.152;11.004;2023-06-10T13:46:35;4.63;;;4.22;;
9729;SDS011;4904;49.152;11.004;2023-06-10T13:49:03;4.75;;;4.35;;
9729;SDS011;4904;49.152;11.004;2023-06-10T13:51:30;4.90;;;4.47;;
9729;SDS011;4904;49.152;11.004;2023-06-10T13:53:57;4.68;;;4.28;;
9729;SDS011;4904;49.152;11.004;2023-06-10T13:56:24;6.05;;;4.43;;
9729;SDS011;4904;49.152;11.004;2023-06-10T13:58:51;4.70;;;4.30;;
9729;SDS011;4904;49.152;11.004;2023-06-10T14:01:18;4.50;;;4.10;;
9729;SDS011;4904;49.152;11.004;2023-06-10T14:03:45;4.95;;;4.43;;
9729;SDS011;4904;49.152;11.004;2023-06-10T14:06:14;4.60;;;4.20;;
9729;SDS011;4904;49.152;11.004;2023-06-10T14:08:43;4.68;;;4.38;;
9729;SDS011;4904;49.152;11.004;2023-06-10T14:11:11;4.35;;;4.03;;
9729;SDS011;4904;49.152;11.004;2023-06-10T14:13:38;4.43;;;4.05;;
9729;SDS011;4904;49.152;11.004;2023-06-10T14:16:05;4.53;;;4.10;;
9729;SDS011;4904;49.152;11.004;2023-06-10T14:18:32;4.10;;;3.80;;
9729;SDS011;4904;49.152;11.004;2023-06-10T14:20:59;4.85;;;4.45;;
9729;SDS011;4904;49.152;11.004;2023-06-10T14:23:28;4.63;;;4.32;;
9729;SDS011;4904;49.152;11.004;2023-06-10T14:25:55;4.82;;;4.53;;
9729;SDS011;4904;49.152;11.004;2023-06-10T14:28:24;4.50;;;4.20;;
9729;SDS011;4904;49.152;11.004;2023-06-10T14:30:52;4.60;;;4.30;;
9729;SDS011;4904;49.152;11.004;2023-06-10T14:33:19;5.07;;;4.68;;
9729;SDS011;4904;49.152;11.004;2023-06-10T14:35:46;4.47;;;4.18;;
9729;SDS011;4904;49.152;11.004;2023-06-10T14:38:13;6.05;;;4.20;;
9729;SDS011;4904;49.152;11.004;2023-06-10T14:40:42;4.60;;;4.20;;
9729;SDS011;4904;49.152;11.004;2023-06-10T14:43:09;4.30;;;4.00;;
9729;SDS011;4904;49.152;11.004;2023-06-10T14:45:38;4.55;;;4.25;;
9729;SDS011;4904;49.152;11.004;2023-06-10T14:48:06;4.65;;;4.30;;
9729;SDS011;4904;49.152;11.004;2023-06-10T14:50:34;4.68;;;4.32;;
9729;SDS011;4904;49.152;11.004;2023-06-10T14:53:01;5.20;;;4.70;;
9729;SDS011;4904;49.152;11.004;2023-06-10T14:55:28;4.10;;;3.80;;
9729;SDS011;4904;49.152;11.004;2023-06-10T14:57:57;4.28;;;3.97;;
9729;SDS011;4904;49.152;11.004;2023-06-10T15:00:24;4.35;;;4.05;;
9729;SDS011;4904;49.152;11.004;2023-06-10T15:02:51;4.10;;;3.80;;
9729;SDS011;4904;49.152;11.004;2023-06-10T15:05:20;4.65;;;4.28;;
9729;SDS011;4904;49.152;11.004;2023-06-10T15:07:47;4.30;;;3.90;;
9729;SDS011;4904;49.152;11.004;2023-06-10T15:10:16;4.22;;;3.92;;